Time;durP1;ratioP1;P1;durP2;ratioP2;P2;SDS_P1;SDS_P2;PMS_P1;PMS_P2;Temp;Humidity;BMP_temperature;BMP_pressure;BME280_temperature;BME280_humidity;BME280_pressure;Samples;Min_cycle;Max_cycle;Signal;HPM_P1;HPM_P2
2022/05/10 00:00:16;;;;;;;15.40;6.10;;;;;;;4.43;66.90;101059.60;104698;1274;74413;-76
2022/05/10 00:03:07;;;;;;;15.20;5.80;;;;;;;4.44;66.64;101057.09;104784;1273;60495;-74
2022/05/10 00:05:57;;;;;;;15.90;5.20;;;;;;;4.43;66.51;101054.83;104693;1274;60494;-74
2022/05/10 00:08:46;;;;;;;13.40;5.00;;;;;;;4.46;66.20;101049.85;104640;1274;74280;-73
2022/05/10 00:11:35;;;;;;;15.10;5.30;;;;;;;4.47;65.91;101042.40;105019;1273;68052;-73
2022/05/10 00:14:27;;;;;;;14.70;4.90;;;;;;;4.50;65.66;101040.91;104896;1273;70408;-74
2022/05/10 00:17:36;;;;;;;14.90;5.40;;;;;;;4.53;65.26;101038.14;104906;1273;60587;-72
2022/05/10 00:20:26;;;;;;;14.70;5.20;;;;;;;4.55;65.20;101035.05;105051;1274;61553;-71
2022/05/10 00:23:14;;;;;;;19.80;5.30;;;;;;;4.57;65.20;101036.59;105126;1273;73943;-73
2022/05/10 00:26:02;;;;;;;13.90;5.30;;;;;;;4.57;64.82;101034.14;105119;1273;68769;-73
2022/05/10 00:28:50;;;;;;;15.40;4.80;;;;;;;4.56;64.94;101028.21;104956;1273;71895;-73
2022/05/10 00:31:38;;;;;;;15.40;5.40;;;;;;;4.54;64.66;101023.00;104929;1274;60647;-74
2022/05/10 00:34:29;;;;;;;12.10;4.50;;;;;;;4.54;64.72;101024.05;104908;1273;60902;-73
2022/05/10 00:37:21;;;;;;;12.20;4.60;;;;;;;4.52;64.57;101022.88;104969;1273;74014;-73
2022/05/10 00:40:10;;;;;;;12.40;4.60;;;;;;;4.51;64.56;101016.59;104673;1274;68374;-74
2022/05/10 00:43:28;;;;;;;12.20;5.00;;;;;;;4.51;64.36;101012.05;104844;1273;71131;-75
2022/05/10 00:46:26;;;;;;;12.30;4.50;;;;;;;4.49;64.26;101017.20;104791;1273;60804;-75
2022/05/10 00:49:29;;;;;;;12.60;5.30;;;;;;;4.50;64.15;101016.65;104853;1273;62003;-75
2022/05/10 00:52:29;;;;;;;13.40;5.10;;;;;;;4.51;63.95;101011.15;104681;1275;75574;-72
2022/05/10 00:55:23;;;;;;;12.40;5.00;;;;;;;4.53;63.80;101004.77;105119;1273;68055;-71
2022/05/10 00:58:39;;;;;;;12.70;5.10;;;;;;;4.55;63.58;101001.17;105037;1273;71616;-75
2022/05/10 01:01:33;;;;;;;15.80;5.60;;;;;;;4.55;63.79;100997.98;105232;1273;60574;-74
2022/05/10 01:04:32;;;;;;;13.30;5.40;;;;;;;4.55;63.78;100994.14;104962;1273;60507;-73
2022/05/10 01:07:41;;;;;;;14.30;4.70;;;;;;;4.53;63.85;100989.63;104763;1273;75399;-73
2022/05/10 01:11:04;;;;;;;17.20;6.00;;;;;;;4.53;63.90;100984.91;105180;1273;68339;-74
2022/05/10 01:14:18;;;;;;;17.80;6.90;;;;;;;4.51;64.06;100975.30;104121;1273;1015035;-72
2022/05/10 01:17:08;;;;;;;16.20;5.90;;;;;;;4.49;64.31;100971.69;105007;1274;60544;-74
2022/05/10 01:19:56;;;;;;;15.40;5.90;;;;;;;4.47;64.31;100967.89;105057;1273;61287;-73
2022/05/10 01:23:24;;;;;;;15.10;5.90;;;;;;;4.46;64.25;100961.08;104857;1273;73300;-74
2022/05/10 01:26:25;;;;;;;15.90;5.60;;;;;;;4.44;64.10;100964.31;104363;1273;1016247;-71
2022/05/10 01:29:36;;;;;;;20.00;6.00;;;;;;;4.41;63.96;100965.48;105632;1273;71283;-71
2022/05/10 01:36:29;;;;;;;14.40;4.80;;;;;;;4.37;63.62;100960.52;105317;1273;60636;-73
2022/05/10 01:39:49;;;;;;;15.60;5.80;;;;;;;4.37;63.12;100960.36;105243;1273;73866;-72
2022/05/10 01:42:48;;;;;;;15.40;5.90;;;;;;;4.39;62.86;100953.26;104885;1273;69569;-71
2022/05/10 01:46:09;;;;;;;13.80;4.50;;;;;;;4.40;62.73;100954.27;104949;1273;71431;-73
2022/05/10 01:49:41;;;;;;;14.80;5.20;;;;;;;4.43;62.52;100953.27;105026;1273;60482;-71
2022/05/10 01:52:49;;;;;;;15.10;5.00;;;;;;;4.43;62.20;100950.80;104920;1273;60508;-71
2022/05/10 01:56:01;;;;;;;17.60;5.30;;;;;;;4.43;61.99;100941.66;104974;1273;75393;-74
2022/05/10 01:58:49;;;;;;;11.90;4.50;;;;;;;4.44;61.98;100940.59;104454;1274;1003448;-72
2022/05/10 02:01:42;;;;;;;13.00;4.70;;;;;;;4.45;61.72;100935.30;105091;1273;70212;-73
2022/05/10 02:04:37;;;;;;;15.10;6.30;;;;;;;4.42;61.63;100926.96;104894;1273;60488;-71
2022/05/10 02:07:26;;;;;;;14.30;5.60;;;;;;;4.46;61.58;100932.45;104984;1273;60323;-70
2022/05/10 02:10:30;;;;;;;13.40;5.40;;;;;;;4.46;61.64;100927.17;104924;1273;74745;-71
2022/05/10 02:13:28;;;;;;;13.30;5.40;;;;;;;4.44;61.13;100924.08;104750;1273;66913;-72
2022/05/10 02:16:35;;;;;;;15.30;5.30;;;;;;;4.45;60.83;100918.63;104936;1273;74363;-72
2022/05/10 02:19:39;;;;;;;15.30;6.50;;;;;;;4.46;60.52;100918.89;104912;1273;60573;-73
2022/05/10 02:22:53;;;;;;;15.00;4.90;;;;;;;4.46;60.27;100917.68;105066;1273;60451;-72
2022/05/10 02:25:53;;;;;;;14.10;5.00;;;;;;;4.46;59.73;100912.77;105136;1273;73006;-72
2022/05/10 02:29:11;;;;;;;12.30;5.30;;;;;;;4.45;59.79;100908.91;105059;1273;68299;-73
2022/05/10 02:36:00;;;;;;;14.60;5.50;;;;;;;4.44;59.10;100897.02;105062;1272;60761;-72
2022/05/10 02:38:52;;;;;;;11.20;4.00;;;;;;;4.44;58.62;100898.23;104841;1273;61574;-72
2022/05/10 02:41:40;;;;;;;15.70;5.10;;;;;;;4.45;58.39;100896.30;104962;1273;73516;-68
2022/05/10 02:44:28;;;;;;;13.70;4.30;;;;;;;4.47;58.24;100897.77;104950;1273;68867;-67
2022/05/10 02:47:29;;;;;;;12.80;4.40;;;;;;;4.49;57.93;100898.59;104805;1273;72130;-66
2022/05/10 02:50:33;;;;;;;12.20;4.20;;;;;;;4.50;57.74;100898.35;105191;1273;61178;-69
2022/05/10 02:53:21;;;;;;;11.70;4.40;;;;;;;4.53;57.38;100890.34;104977;1273;61969;-71
2022/05/10 02:56:14;;;;;;;10.60;4.20;;;;;;;4.53;57.44;100886.48;104843;1273;75600;-72
2022/05/10 02:59:22;;;;;;;12.30;4.30;;;;;;;4.53;57.47;100890.54;104823;1273;68729;-73
2022/05/10 03:02:29;;;;;;;11.30;4.60;;;;;;;4.51;57.32;100888.99;104793;1274;71595;-71
2022/05/10 03:05:16;;;;;;;11.00;4.50;;;;;;;4.51;57.18;100890.05;105119;1273;60590;-73
2022/05/10 03:08:05;;;;;;;10.30;3.80;;;;;;;4.52;57.02;100889.33;104891;1272;61769;-71
2022/05/10 03:10:52;;;;;;;11.30;4.00;;;;;;;4.54;56.89;100891.02;105462;1273;74610;-75
2022/05/10 03:13:43;;;;;;;10.50;4.30;;;;;;;4.54;56.76;100882.92;107379;1273;67573;-69
2022/05/10 03:16:31;;;;;;;10.40;3.50;;;;;;;4.57;56.52;100882.64;108210;1272;73470;-71
2022/05/10 03:19:18;;;;;;;10.10;3.60;;;;;;;4.61;56.39;100881.59;107843;1273;60407;-75
2022/05/10 03:22:08;;;;;;;9.30;3.90;;;;;;;4.64;56.22;100880.44;108339;1272;59044;-71
2022/05/10 03:24:56;;;;;;;10.30;3.50;;;;;;;4.67;56.12;100879.23;106303;1274;74297;-74
2022/05/10 03:27:49;;;;;;;10.40;3.70;;;;;;;4.73;55.90;100878.98;105197;1273;66666;-73
2022/05/10 03:30:37;;;;;;;9.10;3.40;;;;;;;4.78;55.59;100876.66;105171;1273;74117;-71
2022/05/10 03:33:25;;;;;;;11.20;3.60;;;;;;;4.82;55.38;100873.20;105141;1273;60427;-70
2022/05/10 03:36:13;;;;;;;10.30;3.60;;;;;;;4.87;55.12;100872.63;105229;1273;60612;-70
2022/05/10 03:39:01;;;;;;;10.50;3.40;;;;;;;4.92;54.99;100876.66;104003;1274;1003738;-71
2022/05/10 03:41:50;;;;;;;10.10;3.10;;;;;;;4.97;54.72;100874.48;104985;1273;67059;-70
2022/05/10 03:44:38;;;;;;;9.30;3.40;;;;;;;5.03;54.14;100877.79;104890;1274;72754;-71
2022/05/10 03:47:26;;;;;;;9.90;2.90;;;;;;;5.09;53.89;100870.84;105203;1273;60421;-72
2022/05/10 03:50:21;;;;;;;9.70;2.70;;;;;;;5.19;53.00;100872.02;105009;1274;60543;-72
2022/05/10 03:53:09;;;;;;;8.00;2.60;;;;;;;5.29;52.74;100871.23;104919;1273;74540;-71
2022/05/10 03:55:56;;;;;;;7.70;2.70;;;;;;;5.38;52.47;100867.68;104710;1274;66604;-69
2022/05/10 03:58:44;;;;;;;11.90;2.90;;;;;;;5.45;52.01;100864.89;104934;1272;74244;-73
2022/05/10 04:01:33;;;;;;;9.90;3.00;;;;;;;5.55;51.48;100861.64;104710;1274;60526;-71
2022/05/10 04:04:21;;;;;;;8.60;2.90;;;;;;;5.68;50.60;100864.77;104200;1273;1004335;-69
2022/05/10 04:07:09;;;;;;;11.10;2.90;;;;;;;5.81;50.57;100860.35;104765;1273;73674;-70
2022/05/10 04:09:58;;;;;;;9.10;2.70;;;;;;;5.92;50.03;100858.98;104790;1273;69781;-74
2022/05/10 04:12:46;;;;;;;9.70;2.70;;;;;;;6.05;49.30;100862.30;104824;1273;72869;-71
2022/05/10 04:15:34;;;;;;;9.10;2.80;;;;;;;6.16;48.86;100863.88;105107;1273;60471;-72
2022/05/10 04:18:22;;;;;;;10.20;2.80;;;;;;;6.27;48.27;100862.65;104771;1273;60469;-73
2022/05/10 04:21:10;;;;;;;10.50;3.10;;;;;;;6.37;48.22;100856.04;104896;1273;75526;-72
2022/05/10 04:23:58;;;;;;;10.00;3.30;;;;;;;6.48;47.83;100855.34;105128;1273;66387;-73
2022/05/10 04:26:47;;;;;;;8.20;2.50;;;;;;;6.58;47.94;100850.80;105194;1273;73430;-72
2022/05/10 04:29:36;;;;;;;8.60;3.40;;;;;;;6.68;47.35;100853.14;105115;1273;60515;-72
2022/05/10 04:32:25;;;;;;;8.50;3.10;;;;;;;6.78;47.08;100849.67;104919;1274;60469;-71
2022/05/10 04:35:13;;;;;;;9.00;3.10;;;;;;;6.88;46.79;100846.52;105229;1273;73567;-71
2022/05/10 04:38:05;;;;;;;8.60;3.00;;;;;;;6.98;46.46;100847.44;105160;1273;69384;-74
2022/05/10 04:44:09;;;;;;;11.30;3.20;;;;;;;7.23;46.38;100839.49;104971;1273;60379;-71
2022/05/10 04:46:58;;;;;;;8.70;3.10;;;;;;;7.35;46.37;100835.50;104749;1274;61561;-70
2022/05/10 04:49:46;;;;;;;10.60;3.10;;;;;;;7.46;46.29;100839.33;104943;1273;72518;-69
2022/05/10 04:52:38;;;;;;;15.10;3.80;;;;;;;7.57;45.79;100834.16;104975;1274;67204;-65
2022/05/10 04:55:27;;;;;;;10.80;3.30;;;;;;;7.69;45.93;100831.41;104877;1273;72601;-66
2022/05/10 04:58:15;;;;;;;11.00;4.20;;;;;;;7.81;45.80;100834.27;105139;1273;60320;-69
2022/05/10 05:01:07;;;;;;;9.60;3.60;;;;;;;7.95;45.92;100834.79;105032;1273;61899;-69
2022/05/10 05:03:56;;;;;;;11.50;4.10;;;;;;;8.13;45.11;100835.25;105100;1273;73261;-67
2022/05/10 05:06:44;;;;;;;13.10;3.50;;;;;;;8.39;45.10;100834.70;105014;1273;69421;-68
2022/05/10 05:09:32;;;;;;;21.30;6.80;;;;;;;8.90;43.73;100828.09;105022;1273;71486;-67
2022/05/10 05:12:20;;;;;;;14.00;4.20;;;;;;;10.05;41.57;100820.56;104836;1273;60491;-68
2022/05/10 05:15:11;;;;;;;17.90;4.40;;;;;;;11.47;38.40;100812.64;105241;1273;60568;-69
2022/05/10 05:18:03;;;;;;;21.40;4.60;;;;;;;13.01;35.58;100807.77;104706;1273;73246;-67
2022/05/10 05:20:53;;;;;;;10.90;4.00;;;;;;;14.47;33.25;100798.24;104956;1273;68779;-66
2022/05/10 05:23:42;;;;;;;13.70;3.90;;;;;;;15.51;31.07;100793.25;104808;1273;72294;-68
2022/05/10 05:26:30;;;;;;;11.40;3.70;;;;;;;16.61;30.05;100793.70;105023;1273;60909;-70
2022/05/10 05:29:18;;;;;;;14.30;3.20;;;;;;;17.25;27.76;100786.73;104957;1273;60509;-69
2022/05/10 05:32:11;;;;;;;15.70;3.50;;;;;;;17.73;27.33;100787.35;104952;1273;73933;-74
2022/05/10 05:34:59;;;;;;;15.50;3.80;;;;;;;18.51;26.57;100784.64;105023;1273;68474;-73
2022/05/10 05:37:47;;;;;;;12.70;3.60;;;;;;;19.03;25.73;100786.13;104884;1273;71664;-68
2022/05/10 05:40:36;;;;;;;14.50;4.60;;;;;;;19.32;25.66;100788.42;104824;1273;60542;-71
2022/05/10 05:43:26;;;;;;;13.70;3.70;;;;;;;19.97;25.23;100785.25;104821;1273;60447;-71
2022/05/10 05:46:14;;;;;;;10.90;3.80;;;;;;;20.59;25.10;100794.40;105099;1273;75078;-68
2022/05/10 05:49:02;;;;;;;12.40;4.20;;;;;;;21.67;24.06;100785.42;104655;1273;68880;-70
2022/05/10 05:51:50;;;;;;;18.60;4.40;;;;;;;22.32;22.99;100779.98;105043;1272;72613;-71
2022/05/10 05:54:37;;;;;;;15.60;4.40;;;;;;;22.52;22.31;100779.04;104991;1273;60345;-70
2022/05/10 05:57:25;;;;;;;15.80;5.50;;;;;;;22.91;21.81;100777.49;104919;1273;60457;-71
2022/05/10 06:00:20;;;;;;;27.90;4.70;;;;;;;23.25;21.43;100778.08;104884;1273;75529;-70
2022/05/10 06:03:09;;;;;;;20.50;4.50;;;;;;;23.43;21.04;100772.05;105108;1273;68374;-70
2022/05/10 06:05:57;;;;;;;19.00;4.50;;;;;;;23.59;21.09;100771.49;104750;1273;73845;-70
2022/05/10 06:08:45;;;;;;;15.40;4.20;;;;;;;24.10;20.42;100764.89;104719;1273;60380;-72
2022/05/10 06:11:36;;;;;;;15.10;4.10;;;;;;;24.33;20.01;100765.56;104780;1273;60485;-71
2022/05/10 06:14:24;;;;;;;18.10;3.80;;;;;;;24.58;19.79;100764.73;104858;1273;73638;-71
2022/05/10 06:17:14;;;;;;;20.00;4.10;;;;;;;24.70;19.72;100760.53;104938;1273;68221;-70
2022/05/10 06:20:04;;;;;;;20.70;4.30;;;;;;;25.32;19.45;100759.91;104644;1273;73482;-72
2022/05/10 06:22:53;;;;;;;16.20;4.10;;;;;;;25.93;18.73;100749.50;104890;1273;60489;-71
2022/05/10 06:25:44;;;;;;;18.90;4.00;;;;;;;26.32;18.03;100743.34;104695;1273;60216;-71
2022/05/10 06:28:33;;;;;;;13.10;3.10;;;;;;;26.16;17.78;100736.92;104890;1273;74197;-72
2022/05/10 06:31:21;;;;;;;15.10;3.50;;;;;;;26.10;17.88;100733.41;105006;1273;67389;-73
2022/05/10 06:34:15;;;;;;;15.20;3.20;;;;;;;26.48;17.67;100733.38;104964;1273;74691;-71
2022/05/10 06:38:15;;;;;;;9.40;2.80;;;;;;;26.47;17.31;100729.46;105263;1273;60510;-70
2022/05/10 06:40:15;;;;;;;11.80;3.00;;;;;;;26.29;17.30;100723.73;104958;1274;60453;-71
2022/05/10 06:43:03;;;;;;;12.20;2.90;;;;;;;27.05;17.15;100717.75;104729;1274;74527;-69
2022/05/10 06:45:51;;;;;;;11.50;2.70;;;;;;;27.43;16.12;100710.50;104652;1274;68565;-69
2022/05/10 06:48:40;;;;;;;10.40;2.80;;;;;;;27.81;16.26;100709.82;104690;1274;73430;-71
2022/05/10 06:51:28;;;;;;;12.50;3.10;;;;;;;28.22;15.82;100710.02;104919;1274;60496;-72
2022/05/10 06:54:16;;;;;;;11.30;2.90;;;;;;;28.84;15.64;100710.95;104940;1274;61922;-71
2022/05/10 06:57:04;;;;;;;13.10;3.00;;;;;;;29.22;15.19;100709.64;104936;1274;74044;-70
2022/05/10 06:59:54;;;;;;;11.90;2.10;;;;;;;29.50;14.96;100702.37;105144;1274;67157;-71
2022/05/10 07:02:43;;;;;;;10.90;2.30;;;;;;;29.29;14.22;100698.38;104881;1272;71845;-72
2022/05/10 07:05:31;;;;;;;9.40;2.10;;;;;;;29.25;14.42;100691.59;104750;1273;60563;-71
2022/05/10 07:08:19;;;;;;;8.90;1.80;;;;;;;29.11;14.18;100694.89;104882;1273;62314;-71
2022/05/10 07:11:07;;;;;;;10.20;2.00;;;;;;;29.08;14.30;100693.19;104790;1273;75103;-71
2022/05/10 07:13:55;;;;;;;8.00;1.80;;;;;;;28.70;14.41;100688.81;104919;1273;68014;-69
2022/05/10 07:16:43;;;;;;;9.30;2.00;;;;;;;28.16;14.47;100692.15;104663;1273;74634;-69
2022/05/10 07:19:31;;;;;;;8.30;2.10;;;;;;;28.35;14.73;100688.98;105151;1273;60464;-71
2022/05/10 07:22:19;;;;;;;8.00;2.20;;;;;;;28.81;15.04;100689.42;104950;1273;60349;-71
2022/05/10 07:25:11;;;;;;;10.40;2.20;;;;;;;28.50;14.84;100683.23;104701;1273;73939;-73
2022/05/10 07:28:00;;;;;;;10.20;2.10;;;;;;;29.23;14.86;100681.23;105057;1273;67562;-68
2022/05/10 07:30:48;;;;;;;10.10;2.20;;;;;;;29.70;14.25;100670.63;104893;1273;73031;-69
2022/05/10 07:33:36;;;;;;;11.40;2.20;;;;;;;30.20;13.86;100663.09;104868;1273;60518;-71
2022/05/10 07:36:26;;;;;;;8.20;2.20;;;;;;;30.58;13.54;100652.45;105153;1273;60527;-71
2022/05/10 07:39:18;;;;;;;10.50;2.50;;;;;;;30.78;13.41;100646.34;105203;1272;73311;-72
2022/05/10 07:42:06;;;;;;;15.60;3.40;;;;;;;30.93;13.37;100644.30;105441;1273;67055;-71
2022/05/10 07:45:00;;;;;;;10.30;2.50;;;;;;;30.62;13.25;100646.56;105292;1272;73337;-72
2022/05/10 07:47:49;;;;;;;11.60;2.20;;;;;;;30.33;13.65;100641.83;104883;1273;60531;-72
2022/05/10 07:50:38;;;;;;;13.40;2.50;;;;;;;30.09;13.71;100638.99;105175;1273;60555;-72
2022/05/10 07:53:26;;;;;;;9.80;2.30;;;;;;;30.06;13.81;100636.21;104930;1273;75315;-73
2022/05/10 07:56:16;;;;;;;10.90;2.00;;;;;;;29.38;13.86;100639.23;105019;1273;69568;-73
2022/05/10 07:59:12;;;;;;;7.50;1.90;;;;;;;29.20;14.30;100637.42;105079;1272;74450;-73
2022/05/10 08:02:03;;;;;;;6.80;1.80;;;;;;;28.58;14.69;100639.81;105017;1273;60893;-73
2022/05/10 08:04:52;;;;;;;9.40;2.00;;;;;;;28.46;14.87;100636.34;104967;1273;61511;-72
2022/05/10 08:07:40;;;;;;;9.40;2.50;;;;;;;28.50;14.99;100633.90;105019;1273;73936;-70
2022/05/10 08:10:27;;;;;;;6.70;1.70;;;;;;;28.73;14.72;100634.69;104987;1274;69664;-72
2022/05/10 08:13:20;;;;;;;10.30;2.10;;;;;;;28.60;14.55;100634.77;104914;1273;74421;-70
2022/05/10 08:16:09;;;;;;;8.80;2.10;;;;;;;28.32;14.62;100636.71;104793;1273;60509;-71
2022/05/10 08:18:57;;;;;;;8.80;2.40;;;;;;;28.22;14.82;100641.88;105058;1273;61571;-72
2022/05/10 08:21:45;;;;;;;9.40;2.20;;;;;;;27.82;14.75;100637.83;105215;1273;74250;-72
2022/05/10 08:24:33;;;;;;;9.20;1.80;;;;;;;27.74;14.36;100631.66;104863;1273;69419;-72
2022/05/10 08:27:21;;;;;;;7.90;2.10;;;;;;;27.58;14.98;100623.11;105165;1273;74442;-72
2022/05/10 08:30:10;;;;;;;11.80;2.30;;;;;;;27.28;15.06;100622.35;105014;1273;60511;-71
2022/05/10 08:32:58;;;;;;;8.50;1.90;;;;;;;27.35;15.05;100610.85;105118;1273;60650;-72
2022/05/10 08:36:02;;;;;;;8.00;2.00;;;;;;;27.77;14.62;100613.17;105075;1273;74061;-72
2022/05/10 08:38:50;;;;;;;8.50;2.00;;;;;;;27.98;14.07;100609.63;105053;1273;66392;-72
2022/05/10 08:41:54;;;;;;;6.90;1.80;;;;;;;27.62;14.04;100605.31;104840;1273;73713;-73
2022/05/10 08:44:50;;;;;;;8.20;1.80;;;;;;;27.43;14.36;100599.57;105007;1273;60482;-71
2022/05/10 08:47:42;;;;;;;8.90;1.70;;;;;;;27.70;14.87;100589.35;104924;1273;60751;-70
2022/05/10 08:50:31;;;;;;;8.60;1.70;;;;;;;27.65;14.02;100582.05;105099;1273;75688;-71
2022/05/10 08:53:25;;;;;;;9.30;1.80;;;;;;;27.77;14.54;100576.02;105228;1273;69702;-71
2022/05/10 08:56:24;;;;;;;8.00;1.70;;;;;;;27.98;14.27;100577.23;104794;1273;74265;-70
2022/05/10 08:59:51;;;;;;;7.20;2.10;;;;;;;27.55;14.16;100574.68;104960;1274;60600;-67
2022/05/10 09:02:48;;;;;;;10.90;2.20;;;;;;;27.33;14.74;100568.58;104812;1273;60377;-70
2022/05/10 09:05:44;;;;;;;9.30;2.50;;;;;;;27.67;14.75;100565.96;104909;1273;75506;-70
2022/05/10 09:08:55;;;;;;;8.90;2.20;;;;;;;27.92;14.40;100557.29;104767;1273;339626;-70
2022/05/10 09:11:52;;;;;;;7.40;1.70;;;;;;;27.85;14.30;100557.30;105297;1274;73408;-71
2022/05/10 09:15:10;;;;;;;6.90;1.80;;;;;;;27.62;13.74;100562.09;105001;1273;60521;-72
2022/05/10 09:17:58;;;;;;;7.20;2.00;;;;;;;27.11;13.87;100555.73;105059;1273;61161;-70
2022/05/10 09:21:19;;;;;;;7.00;1.60;;;;;;;26.80;14.43;100555.34;104852;1273;75499;-71
2022/05/10 09:24:33;;;;;;;6.90;2.00;;;;;;;26.53;14.58;100545.93;105188;1273;68072;-71
2022/05/10 09:27:25;;;;;;;8.40;2.20;;;;;;;26.49;15.08;100544.20;105118;1273;71837;-72
2022/05/10 09:30:29;;;;;;;9.50;2.30;;;;;;;26.38;15.19;100538.48;105251;1273;60400;-71
2022/05/10 09:36:31;;;;;;;8.60;1.80;;;;;;;26.02;15.12;100528.55;105111;1274;75602;-73
2022/05/10 09:39:34;;;;;;;6.10;1.70;;;;;;;26.13;15.27;100514.17;105664;1273;66795;-75
2022/05/10 09:42:39;;;;;;;7.20;1.90;;;;;;;26.27;14.81;100514.11;105212;1273;73407;-75
2022/05/10 09:45:27;;;;;;;6.80;1.70;;;;;;;26.61;13.89;100512.48;105681;1271;61191;-76
2022/05/10 09:48:18;;;;;;;8.00;1.70;;;;;;;26.56;14.18;100506.84;105104;1271;60419;-76
2022/05/10 09:51:41;;;;;;;8.60;1.90;;;;;;;26.45;14.16;100511.44;105405;1271;75094;-71
2022/05/10 09:54:41;;;;;;;8.50;1.80;;;;;;;26.25;14.61;100507.48;104979;1272;68933;-76
2022/05/10 09:57:36;;;;;;;7.30;1.70;;;;;;;26.40;15.25;100494.88;105181;1272;71615;-77
2022/05/10 10:00:43;;;;;;;6.20;2.20;;;;;;;26.91;14.22;100493.71;105371;1271;60470;-76
2022/05/10 10:03:40;;;;;;;9.10;1.80;;;;;;;26.87;14.18;100488.73;105766;1271;60622;-71
2022/05/10 10:06:28;;;;;;;7.20;1.80;;;;;;;26.86;14.29;100486.05;107571;1271;74128;-72
2022/05/10 10:09:32;;;;;;;6.90;1.80;;;;;;;26.73;14.05;100484.30;105960;1271;68093;-78
2022/05/10 10:12:40;;;;;;;8.60;1.80;;;;;;;26.88;14.17;100478.83;104946;1271;71815;-74
2022/05/10 10:15:54;;;;;;;7.60;1.90;;;;;;;26.75;14.17;100468.30;104837;1273;60546;-69
2022/05/10 10:18:48;;;;;;;7.40;1.70;;;;;;;26.74;14.14;100467.46;105702;1274;61327;-75
2022/05/10 10:22:02;;;;;;;9.20;1.90;;;;;;;26.74;14.04;100460.98;104704;1274;74191;-71
2022/05/10 10:25:14;;;;;;;6.70;1.70;;;;;;;26.96;13.49;100461.35;105091;1273;68796;-73
2022/05/10 10:28:41;;;;;;;8.70;1.90;;;;;;;27.09;14.01;100457.91;104950;1273;71874;-71
2022/05/10 10:31:51;;;;;;;6.40;1.90;;;;;;;26.86;14.03;100453.63;104941;1273;60460;-71
2022/05/10 10:35:18;;;;;;;7.60;2.10;;;;;;;26.73;14.52;100444.94;105203;1273;61562;-72
2022/05/10 10:39:05;;;;;;;8.70;2.20;;;;;;;26.94;14.23;100435.98;105258;1273;73064;-75
2022/05/10 10:42:17;;;;;;;8.10;2.10;;;;;;;27.35;13.56;100434.19;105188;1274;69635;-73
2022/05/10 10:45:14;;;;;;;9.00;1.90;;;;;;;27.56;13.64;100439.71;105011;1273;73078;-72
2022/05/10 10:48:27;;;;;;;8.40;1.90;;;;;;;27.37;13.70;100442.89;104980;1273;60517;-75
2022/05/10 10:51:17;;;;;;;7.80;2.00;;;;;;;27.20;13.55;100430.23;105404;1273;61195;-72
2022/05/10 10:54:15;;;;;;;7.90;1.90;;;;;;;27.36;13.67;100419.94;104988;1274;71978;-72
2022/05/10 10:57:21;;;;;;;7.20;1.70;;;;;;;27.42;14.03;100416.33;104959;1274;68114;-73
2022/05/10 11:00:21;;;;;;;7.10;2.00;;;;;;;27.18;14.47;100416.94;105234;1273;74400;-72
2022/05/10 11:03:25;;;;;;;8.10;1.90;;;;;;;26.76;15.04;100406.01;105153;1273;60482;-71
2022/05/10 11:06:27;;;;;;;7.90;1.70;;;;;;;26.71;15.02;100408.77;105286;1273;60466;-73
2022/05/10 11:09:50;;;;;;;9.20;1.80;;;;;;;26.29;14.91;100404.75;105311;1273;74776;-71
2022/05/10 11:13:01;;;;;;;6.80;1.90;;;;;;;26.10;15.44;100392.94;104920;1273;69345;-72
2022/05/10 11:16:20;;;;;;;6.30;1.80;;;;;;;26.04;15.53;100386.23;105221;1275;70857;-73
2022/05/10 11:19:40;;;;;;;8.60;2.10;;;;;;;25.78;15.62;100382.23;105157;1273;60473;-74
2022/05/10 11:22:49;;;;;;;8.60;2.20;;;;;;;25.72;15.90;100374.20;104674;1273;61777;-72
2022/05/10 11:26:28;;;;;;;6.90;1.70;;;;;;;25.38;15.88;100368.35;105158;1273;74068;-73
2022/05/10 11:29:39;;;;;;;9.80;2.30;;;;;;;25.06;16.05;100364.77;104574;1281;69667;-73
2022/05/10 11:32:37;;;;;;;6.80;2.00;;;;;;;24.83;16.24;100360.76;104418;1281;73575;-72
2022/05/10 11:35:55;;;;;;;11.00;1.90;;;;;;;24.61;15.52;100362.02;104467;1281;60486;-71
2022/05/10 11:39:01;;;;;;;9.20;1.80;;;;;;;24.33;15.28;100355.04;104619;1281;61330;-72
2022/05/10 11:42:23;;;;;;;7.00;1.80;;;;;;;23.96;15.96;100348.05;104804;1281;73876;-73
2022/05/10 11:45:41;;;;;;;8.80;1.90;;;;;;;23.58;17.25;100346.04;104367;1281;68735;-73
2022/05/10 11:48:57;;;;;;;7.70;1.90;;;;;;;23.17;17.88;100341.48;104459;1281;71773;-72
2022/05/10 11:52:32;;;;;;;7.70;2.00;;;;;;;22.80;18.37;100344.52;104560;1281;60655;-73
2022/05/10 11:55:54;;;;;;;8.50;2.10;;;;;;;22.37;18.63;100339.73;104457;1281;60425;-71
2022/05/10 11:58:44;;;;;;;7.50;1.70;;;;;;;21.88;19.27;100346.34;104279;1281;74166;-70
2022/05/10 12:01:49;;;;;;;8.50;2.00;;;;;;;21.61;19.71;100333.77;104682;1281;68945;-70
2022/05/10 12:04:44;;;;;;;9.70;2.10;;;;;;;21.47;20.00;100322.14;104525;1281;74492;-69
2022/05/10 12:07:41;;;;;;;10.30;2.10;;;;;;;21.32;20.13;100317.59;104838;1273;60479;-68
2022/05/10 12:10:44;;;;;;;8.50;1.90;;;;;;;21.14;20.27;100313.81;104994;1273;60340;-70
2022/05/10 12:23:01;;;;;;;7.70;2.00;;;;;;;21.19;19.64;100284.89;105011;1273;60352;-69
2022/05/10 12:25:57;;;;;;;8.70;1.90;;;;;;;21.21;19.97;100280.58;105014;1273;60582;-70
2022/05/10 12:28:48;;;;;;;7.50;2.00;;;;;;;21.13;19.83;100271.23;105235;1273;73952;-70
2022/05/10 12:31:37;;;;;;;7.20;2.10;;;;;;;21.16;19.52;100272.63;105140;1273;66927;-71
2022/05/10 12:34:37;;;;;;;8.10;1.80;;;;;;;21.11;19.08;100267.80;104922;1273;72884;-72
2022/05/10 12:37:28;;;;;;;6.50;1.60;;;;;;;21.08;19.05;100268.34;105386;1273;60582;-71
2022/05/10 12:40:31;;;;;;;6.30;1.60;;;;;;;20.97;19.00;100261.00;104828;1273;60727;-72
2022/05/10 12:43:53;;;;;;;6.80;1.70;;;;;;;20.99;19.47;100252.09;104876;1273;72835;-70
2022/05/10 12:47:09;;;;;;;8.10;1.90;;;;;;;21.19;19.87;100255.52;105053;1273;66392;-72
2022/05/10 12:50:31;;;;;;;8.00;1.90;;;;;;;21.16;19.63;100254.02;105182;1273;73081;-71
2022/05/10 12:53:50;;;;;;;7.50;1.80;;;;;;;21.23;19.60;100247.12;104997;1274;60442;-71
2022/05/10 12:56:42;;;;;;;9.40;1.80;;;;;;;21.22;20.11;100238.38;104995;1273;60335;-70
2022/05/10 13:00:12;;;;;;;9.30;2.30;;;;;;;21.18;20.38;100228.33;105288;1273;72599;-71
2022/05/10 13:03:22;;;;;;;11.00;1.90;;;;;;;21.24;20.23;100227.42;105131;1274;69960;-70
2022/05/10 13:06:33;;;;;;;6.30;1.60;;;;;;;21.13;18.97;100225.88;104884;1273;71435;-72
2022/05/10 13:09:49;;;;;;;8.90;1.90;;;;;;;21.02;19.62;100224.66;105209;1273;60469;-71
2022/05/10 13:12:45;;;;;;;6.60;1.60;;;;;;;21.06;19.78;100216.95;105375;1273;60447;-70
2022/05/10 13:15:44;;;;;;;7.30;1.50;;;;;;;21.18;19.59;100198.30;105395;1273;75551;-70
2022/05/10 13:18:33;;;;;;;9.80;2.00;;;;;;;21.30;19.67;100191.02;107641;1273;68348;-71
2022/05/10 13:21:28;;;;;;;7.50;1.60;;;;;;;21.30;19.31;100190.14;107541;1272;71581;-72
2022/05/10 13:24:20;;;;;;;7.60;1.80;;;;;;;21.32;19.53;100190.02;106896;1274;60497;-72
2022/05/10 13:27:27;;;;;;;6.40;1.70;;;;;;;21.36;19.96;100184.94;107250;1273;60337;-70
2022/05/10 13:30:20;;;;;;;6.40;1.80;;;;;;;21.43;19.94;100181.51;105340;1276;73810;-71
2022/05/10 13:33:14;;;;;;;7.10;1.80;;;;;;;21.51;20.00;100171.73;104927;1273;68587;-72
2022/05/10 13:36:13;;;;;;;8.10;1.80;;;;;;;21.58;20.43;100168.11;104932;1273;73016;-71
2022/05/10 13:39:00;;;;;;;8.30;1.90;;;;;;;21.56;20.81;100166.48;104903;1275;60493;-71
2022/05/10 13:41:55;;;;;;;9.10;1.90;;;;;;;21.64;20.80;100158.06;105006;1273;60432;-71
2022/05/10 13:44:44;;;;;;;10.50;2.00;;;;;;;21.52;20.66;100157.38;105023;1275;74014;-71
2022/05/10 13:47:33;;;;;;;9.20;2.40;;;;;;;21.38;20.89;100152.73;105232;1273;68073;-72
2022/05/10 13:50:26;;;;;;;8.90;2.10;;;;;;;21.36;21.12;100151.75;104952;1273;71955;-73
2022/05/10 13:53:27;;;;;;;8.50;1.70;;;;;;;21.39;21.01;100140.31;105131;1273;60587;-76
2022/05/10 13:56:25;;;;;;;7.40;1.90;;;;;;;21.45;21.16;100134.04;105226;1272;60488;-72